Time;durP1;ratioP1;P1;durP2;ratioP2;P2;SDS_P1;SDS_P2;PMS_P1;PMS_P2;Temp;Humidity;BMP_temperature;BMP_pressure;BME280_temperature;BME280_humidity;BME280_pressure;Samples;Min_cycle;Max_cycle;Signal;HPM_P1;HPM_P2
2023/12/13 00:00:18;;;;;;;50.97;19.05;;;6.90;99.90;;;;;;4988721;28;20191;-63
2023/12/13 00:02:44;;;;;;;47.03;18.75;;;6.90;99.90;;;;;;4989672;28;20033;-63
2023/12/13 00:05:10;;;;;;;47.58;18.60;;;6.90;99.90;;;;;;4989428;28;20027;-63
2023/12/13 00:07:35;;;;;;;44.40;18.90;;;6.90;99.90;;;;;;4990727;28;20025;-62
2023/12/13 00:10:01;;;;;;;47.55;19.00;;;6.90;99.90;;;;;;4988773;28;20545;-62
2023/12/13 00:12:26;;;;;;;48.20;19.13;;;6.90;99.90;;;;;;4989241;28;20479;-63
2023/12/13 00:14:52;;;;;;;41.50;17.48;;;6.90;99.90;;;;;;4989677;28;20398;-62
2023/12/13 00:17:18;;;;;;;42.28;17.88;;;6.90;99.90;;;;;;4988874;28;20038;-63
2023/12/13 00:19:43;;;;;;;45.92;18.30;;;6.90;99.90;;;;;;4988415;28;20070;-63
2023/12/13 00:22:09;;;;;;;43.42;16.50;;;6.90;99.90;;;;;;4988761;28;20038;-63
2023/12/13 00:24:35;;;;;;;38.63;16.88;;;7.00;99.90;;;;;;4988730;28;20062;-61
2023/12/13 00:27:01;;;;;;;41.88;16.60;;;7.00;99.90;;;;;;4988221;28;20038;-64
2023/12/13 00:29:26;;;;;;;41.58;17.85;;;7.00;99.90;;;;;;4988964;28;20030;-64
2023/12/13 00:31:52;;;;;;;40.55;17.33;;;7.00;99.90;;;;;;4991259;28;20042;-63
2023/12/13 00:34:18;;;;;;;32.83;16.73;;;7.00;99.90;;;;;;4989775;28;20026;-62
2023/12/13 00:36:43;;;;;;;45.92;16.15;;;7.00;99.90;;;;;;4989070;28;20023;-63
2023/12/13 00:39:09;;;;;;;46.90;15.43;;;7.00;99.90;;;;;;4989155;28;20027;-63
2023/12/13 00:41:34;;;;;;;31.20;15.02;;;7.00;99.90;;;;;;4989034;28;20407;-61
2023/12/13 00:44:01;;;;;;;31.00;14.95;;;7.00;99.90;;;;;;4987291;28;20053;-63
2023/12/13 00:46:26;;;;;;;50.50;15.98;;;7.00;99.90;;;;;;4988125;28;20039;-64
2023/12/13 00:48:52;;;;;;;51.92;16.30;;;7.00;99.90;;;;;;4990130;28;20038;-63
2023/12/13 00:51:22;;;;;;;44.50;14.93;;;7.00;99.90;;;;;;4989333;28;20133;-63
2023/12/13 00:53:48;;;;;;;48.63;15.48;;;7.00;99.90;;;;;;4989003;28;20042;-63
2023/12/13 00:56:14;;;;;;;29.50;14.23;;;7.10;99.90;;;;;;4988052;28;20046;-63
2023/12/13 00:58:40;;;;;;;41.25;15.48;;;7.10;99.90;;;;;;4989043;28;20022;-62
2023/12/13 01:01:06;;;;;;;51.90;15.65;;;7.10;99.90;;;;;;4988305;28;20053;-63
2023/12/13 01:03:32;;;;;;;44.97;15.57;;;7.10;99.90;;;;;;4987932;28;20493;-63
2023/12/13 01:05:58;;;;;;;50.53;16.20;;;7.10;99.90;;;;;;4987413;28;20043;-63
2023/12/13 01:08:24;;;;;;;40.72;15.55;;;7.10;99.90;;;;;;4988523;28;20027;-63
2023/12/13 01:10:49;;;;;;;42.25;14.25;;;7.10;99.90;;;;;;4988847;28;20038;-61
2023/12/13 01:13:15;;;;;;;42.15;14.70;;;7.10;99.90;;;;;;4987071;28;20033;-62
2023/12/13 01:15:40;;;;;;;37.05;14.02;;;7.10;99.90;;;;;;4989461;28;20029;-63
2023/12/13 01:18:06;;;;;;;56.28;15.02;;;7.10;99.90;;;;;;4987045;28;20037;-63
2023/12/13 01:20:32;;;;;;;39.67;13.48;;;7.10;99.90;;;;;;4987888;28;20577;-63
2023/12/13 01:22:58;;;;;;;51.10;13.60;;;7.10;99.90;;;;;;4988404;28;20038;-63
2023/12/13 01:25:23;;;;;;;35.42;13.02;;;7.00;99.90;;;;;;4987773;28;20107;-61
2023/12/13 01:27:49;;;;;;;17.08;10.60;;;7.00;99.90;;;;;;4987454;28;20566;-62
2023/12/13 01:30:14;;;;;;;14.75;10.02;;;7.00;99.90;;;;;;4987746;28;20036;-62
2023/12/13 01:32:40;;;;;;;25.45;11.13;;;7.10;99.90;;;;;;4985431;28;20121;-63
2023/12/13 01:35:06;;;;;;;29.88;12.63;;;7.20;99.90;;;;;;5002412;28;20026;-63
2023/12/13 01:37:32;;;;;;;44.63;14.15;;;7.20;99.90;;;;;;4986241;28;20100;-64
2023/12/13 01:39:57;;;;;;;28.52;12.35;;;7.20;99.90;;;;;;4988749;28;20046;-63
2023/12/13 01:42:23;;;;;;;28.48;11.93;;;7.20;99.90;;;;;;4987677;28;20027;-63
2023/12/13 01:44:50;;;;;;;19.67;11.63;;;7.30;99.90;;;;;;4989003;28;20045;-63
2023/12/13 01:47:17;;;;;;;17.90;11.57;;;7.30;99.90;;;;;;4985709;28;20039;-62
2023/12/13 01:49:44;;;;;;;18.00;11.40;;;7.40;99.90;;;;;;4988116;28;20023;-62
2023/12/13 01:52:10;;;;;;;16.67;10.63;;;7.30;99.90;;;;;;4988203;28;20026;-63
2023/12/13 01:54:37;;;;;;;13.82;9.73;;;7.40;99.90;;;;;;4987565;28;20034;-62
2023/12/13 01:57:03;;;;;;;16.30;9.70;;;7.40;99.90;;;;;;4986079;28;20038;-62
2023/12/13 01:59:32;;;;;;;10.18;8.35;;;7.50;99.90;;;;;;4986474;28;20034;-62
2023/12/13 02:01:58;;;;;;;9.35;8.00;;;7.40;99.90;;;;;;4985389;28;20038;-63
2023/12/13 02:04:27;;;;;;;16.77;10.05;;;7.40;99.90;;;;;;4987283;28;20035;-62
2023/12/13 02:06:53;;;;;;;12.05;9.88;;;7.50;99.90;;;;;;4988834;28;20125;-62
2023/12/13 02:09:18;;;;;;;9.25;8.20;;;7.50;99.90;;;;;;4987601;28;20153;-63
2023/12/13 02:11:45;;;;;;;11.23;8.95;;;7.50;99.90;;;;;;4987502;28;20100;-62
2023/12/13 02:14:11;;;;;;;13.90;10.05;;;7.60;99.90;;;;;;4987645;28;20031;-62
2023/12/13 02:16:37;;;;;;;16.55;12.63;;;7.60;99.90;;;;;;4985374;28;20491;-61
2023/12/13 02:19:03;;;;;;;6.57;5.82;;;7.60;99.90;;;;;;4987414;28;20022;-63
2023/12/13 02:21:29;;;;;;;12.00;6.75;;;7.60;99.90;;;;;;4987140;28;20509;-63
2023/12/13 02:24:00;;;;;;;10.40;7.22;;;7.70;99.90;;;;;;4985967;28;20038;-63
2023/12/13 02:26:26;;;;;;;9.93;7.43;;;7.70;99.90;;;;;;4985462;28;20498;-63
2023/12/13 02:28:54;;;;;;;8.13;7.00;;;7.70;99.90;;;;;;4987229;28;20030;-62
2023/12/13 02:31:21;;;;;;;6.03;5.43;;;7.80;99.90;;;;;;4987719;28;20035;-63
2023/12/13 02:33:46;;;;;;;7.03;6.03;;;7.80;99.90;;;;;;4987145;28;20026;-62
2023/12/13 02:36:12;;;;;;;6.50;4.75;;;7.80;99.90;;;;;;4987062;28;20526;-63
2023/12/13 02:38:40;;;;;;;5.53;4.63;;;7.80;99.90;;;;;;4987762;28;20042;-62
2023/12/13 02:41:06;;;;;;;9.00;5.60;;;7.80;99.90;;;;;;4986909;28;20038;-62
2023/12/13 02:43:32;;;;;;;9.77;5.07;;;7.90;99.90;;;;;;4987259;28;20034;-63
2023/12/13 02:45:58;;;;;;;8.05;6.22;;;7.90;99.90;;;;;;4986870;28;20149;-62
2023/12/13 02:48:24;;;;;;;6.68;5.95;;;7.90;99.90;;;;;;4986435;28;20027;-62
2023/12/13 02:50:52;;;;;;;6.55;4.70;;;8.00;99.90;;;;;;4987578;28;20514;-62
2023/12/13 02:53:21;;;;;;;8.38;4.38;;;8.00;99.90;;;;;;4987182;28;20052;-63
2023/12/13 02:55:47;;;;;;;7.43;4.95;;;8.00;99.90;;;;;;4986509;28;20821;-61
2023/12/13 02:58:12;;;;;;;5.38;4.57;;;8.10;99.90;;;;;;4987253;28;20057;-62
2023/12/13 03:00:38;;;;;;;5.07;3.40;;;8.20;99.90;;;;;;4986394;28;20014;-62
2023/12/13 03:03:04;;;;;;;3.22;2.90;;;8.20;99.90;;;;;;4984566;28;20031;-63
2023/12/13 03:05:30;;;;;;;3.50;3.13;;;8.20;99.90;;;;;;4986593;28;20041;-63
2023/12/13 03:07:55;;;;;;;3.80;3.00;;;8.30;99.90;;;;;;4986396;28;20035;-63
2023/12/13 03:10:21;;;;;;;3.40;2.72;;;8.30;99.90;;;;;;4986001;28;20360;-61
2023/12/13 03:12:46;;;;;;;4.35;3.22;;;8.30;99.90;;;;;;4987760;28;20699;-62
2023/12/13 03:15:12;;;;;;;4.47;2.55;;;8.30;99.90;;;;;;4986586;28;20064;-63
2023/12/13 03:17:38;;;;;;;6.32;2.83;;;8.30;99.90;;;;;;4985577;28;20038;-62
2023/12/13 03:20:04;;;;;;;4.38;2.30;;;8.30;99.90;;;;;;4986485;28;20027;-63
2023/12/13 03:22:30;;;;;;;5.15;2.40;;;8.30;99.90;;;;;;4986858;28;20045;-62
2023/12/13 03:24:58;;;;;;;7.40;4.53;;;8.30;99.90;;;;;;4986047;28;20022;-63
2023/12/13 03:27:24;;;;;;;3.85;3.25;;;8.20;99.90;;;;;;4986984;28;20077;-63
2023/12/13 03:29:49;;;;;;;3.75;3.00;;;8.30;99.90;;;;;;4986898;28;20577;-62
2023/12/13 03:32:15;;;;;;;2.83;2.50;;;8.30;99.90;;;;;;4986944;28;20042;-63
2023/12/13 03:34:42;;;;;;;3.63;2.08;;;8.30;99.90;;;;;;4986281;28;20146;-63
2023/12/13 03:37:08;;;;;;;3.90;2.13;;;8.30;99.90;;;;;;4986243;28;20153;-64
2023/12/13 03:39:34;;;;;;;3.17;2.00;;;8.30;99.90;;;;;;4986948;28;20538;-62
2023/12/13 03:42:00;;;;;;;2.67;1.98;;;8.30;99.90;;;;;;4987155;28;20038;-63
2023/12/13 03:44:25;;;;;;;4.47;2.20;;;8.30;99.90;;;;;;4984407;28;20511;-63
2023/12/13 03:46:53;;;;;;;3.72;1.70;;;8.30;99.90;;;;;;4986732;28;20034;-63
2023/12/13 03:49:19;;;;;;;1.92;1.50;;;8.30;99.90;;;;;;4987117;28;20039;-64
2023/12/13 03:51:46;;;;;;;5.35;1.73;;;8.30;99.90;;;;;;4986270;28;20769;-63
2023/12/13 03:54:15;;;;;;;6.47;1.73;;;8.30;99.90;;;;;;4986101;28;20046;-63
2023/12/13 03:56:41;;;;;;;4.03;2.38;;;8.30;99.90;;;;;;4984481;28;20042;-63
2023/12/13 03:59:07;;;;;;;2.15;1.77;;;8.30;99.90;;;;;;4985579;28;20030;-62
2023/12/13 04:01:33;;;;;;;8.45;3.13;;;8.30;99.90;;;;;;4986454;28;20041;-62
2023/12/13 04:03:59;;;;;;;3.13;1.50;;;8.30;99.90;;;;;;4986549;28;20022;-63
2023/12/13 04:06:24;;;;;;;4.80;2.03;;;8.30;99.90;;;;;;4984033;28;20133;-63
2023/12/13 04:08:50;;;;;;;7.82;1.83;;;8.30;99.90;;;;;;4986701;28;20406;-63
2023/12/13 04:11:15;;;;;;;3.53;2.58;;;8.30;99.90;;;;;;4986508;28;20060;-63
2023/12/13 04:13:42;;;;;;;4.43;2.38;;;8.30;99.90;;;;;;4986534;28;20621;-63
2023/12/13 04:16:08;;;;;;;5.05;2.15;;;8.30;99.90;;;;;;4985787;28;20019;-62
2023/12/13 04:18:34;;;;;;;3.88;1.52;;;8.30;99.90;;;;;;4988244;28;20065;-63
2023/12/13 04:21:00;;;;;;;3.75;2.15;;;8.30;99.90;;;;;;4988413;28;20041;-63
2023/12/13 04:23:25;;;;;;;4.88;2.40;;;8.20;99.90;;;;;;4989909;28;20026;-63
2023/12/13 04:25:51;;;;;;;3.33;2.08;;;8.20;99.90;;;;;;4989687;28;20575;-63
2023/12/13 04:28:16;;;;;;;6.78;2.50;;;8.20;99.90;;;;;;4989644;28;20107;-63
2023/12/13 04:30:42;;;;;;;3.35;2.15;;;8.10;99.90;;;;;;4990349;28;20030;-61
2023/12/13 04:33:08;;;;;;;6.60;2.72;;;8.10;99.90;;;;;;4989518;28;20050;-63
2023/12/13 04:35:34;;;;;;;4.80;2.13;;;8.20;99.90;;;;;;4988248;28;20129;-63
2023/12/13 04:37:59;;;;;;;7.63;2.30;;;8.20;99.90;;;;;;4989728;28;20640;-63
2023/12/13 04:40:25;;;;;;;5.45;2.22;;;8.20;99.90;;;;;;4989935;28;20031;-63
2023/12/13 04:42:51;;;;;;;4.55;2.78;;;8.20;99.90;;;;;;4989395;28;20076;-62
2023/12/13 04:45:16;;;;;;;3.65;2.10;;;8.20;99.90;;;;;;4989129;28;20031;-63
2023/12/13 04:47:43;;;;;;;3.92;2.65;;;8.10;99.90;;;;;;4989620;28;20619;-63
2023/12/13 04:50:09;;;;;;;3.90;2.10;;;8.10;99.90;;;;;;4988837;28;20037;-64
2023/12/13 04:52:35;;;;;;;4.78;2.55;;;8.10;99.90;;;;;;4989711;28;20018;-62
2023/12/13 04:55:01;;;;;;;7.07;2.90;;;8.20;99.90;;;;;;4988457;28;20406;-63
2023/12/13 04:57:27;;;;;;;3.05;1.88;;;8.20;99.90;;;;;;4989670;28;20026;-63
2023/12/13 04:59:52;;;;;;;4.65;2.55;;;8.20;99.90;;;;;;4988283;28;20030;-63
2023/12/13 05:02:18;;;;;;;4.55;1.90;;;8.20;99.90;;;;;;4989613;28;20046;-63
2023/12/13 05:04:44;;;;;;;3.92;2.00;;;8.30;99.90;;;;;;4988312;28;20038;-62
2023/12/13 05:07:09;;;;;;;13.45;2.50;;;8.30;99.90;;;;;;4988796;28;20489;-63
2023/12/13 05:09:35;;;;;;;4.43;2.05;;;8.30;99.90;;;;;;4989241;28;20042;-61
2023/12/13 05:12:01;;;;;;;2.58;1.45;;;8.30;99.90;;;;;;4988901;28;20078;-62
2023/12/13 05:14:27;;;;;;;3.90;1.50;;;8.20;99.90;;;;;;4988456;28;20118;-64
2023/12/13 05:16:53;;;;;;;2.33;1.48;;;8.20;99.90;;;;;;4989176;28;20121;-61
2023/12/13 05:19:18;;;;;;;4.68;1.50;;;8.20;99.90;;;;;;4988625;28;20030;-63
2023/12/13 05:21:44;;;;;;;3.72;1.80;;;8.20;99.90;;;;;;4989402;28;20038;-62
2023/12/13 05:24:09;;;;;;;1.77;1.52;;;8.20;99.90;;;;;;4988787;28;20117;-63
2023/12/13 05:26:35;;;;;;;4.30;1.65;;;8.20;99.90;;;;;;4988189;28;20034;-63
2023/12/13 05:29:02;;;;;;;9.88;2.75;;;8.20;99.90;;;;;;4988675;28;20037;-63
2023/12/13 05:31:28;;;;;;;7.97;1.50;;;8.20;99.90;;;;;;4987467;28;20080;-62
2023/12/13 05:33:54;;;;;;;7.13;1.38;;;8.20;99.90;;;;;;4988174;28;20038;-63
2023/12/13 05:36:20;;;;;;;2.92;1.48;;;8.20;99.90;;;;;;4988757;28;20506;-63
2023/12/13 05:38:46;;;;;;;2.67;1.30;;;8.20;99.90;;;;;;4988514;28;20104;-63
2023/12/13 05:41:12;;;;;;;2.17;1.13;;;8.20;99.90;;;;;;4988369;28;20036;-63
2023/12/13 05:43:37;;;;;;;3.65;1.95;;;8.20;99.90;;;;;;4988002;28;20307;-63
2023/12/13 05:46:04;;;;;;;4.13;1.90;;;8.20;99.90;;;;;;4986427;28;20026;-62
2023/12/13 05:48:31;;;;;;;3.33;1.10;;;8.20;99.90;;;;;;4992854;28;20014;-63
2023/12/13 05:50:57;;;;;;;8.18;1.45;;;8.20;99.90;;;;;;4988372;28;20557;-62
2023/12/13 05:53:23;;;;;;;6.70;2.17;;;8.10;99.90;;;;;;4987033;28;20034;-63
2023/12/13 05:55:49;;;;;;;2.22;1.13;;;8.10;99.90;;;;;;4987827;28;20045;-63
2023/12/13 05:58:14;;;;;;;2.45;1.15;;;8.10;99.90;;;;;;4988276;28;20039;-63
2023/12/13 06:00:40;;;;;;;4.93;1.42;;;8.10;99.90;;;;;;4988215;28;20021;-63
2023/12/13 06:03:05;;;;;;;2.45;0.90;;;8.10;99.90;;;;;;4987849;28;20081;-63
2023/12/13 06:05:31;;;;;;;6.18;1.00;;;8.10;99.90;;;;;;4987823;28;20061;-63
2023/12/13 06:07:57;;;;;;;5.15;1.90;;;8.10;99.90;;;;;;4987835;28;20125;-63
2023/12/13 06:10:22;;;;;;;2.75;1.10;;;8.10;99.90;;;;;;4987910;28;20081;-62
2023/12/13 06:12:52;;;;;;;2.80;1.30;;;8.10;99.90;;;;;;4986864;28;20062;-63
2023/12/13 06:15:18;;;;;;;3.80;1.08;;;8.10;99.90;;;;;;4987632;28;20058;-62
2023/12/13 06:17:44;;;;;;;3.50;1.30;;;8.10;99.90;;;;;;4987703;28;20037;-63
2023/12/13 06:20:10;;;;;;;2.63;1.25;;;8.10;99.90;;;;;;4987280;28;20482;-61
2023/12/13 06:22:36;;;;;;;2.25;1.30;;;8.10;99.90;;;;;;4987038;28;20033;-63
2023/12/13 06:25:02;;;;;;;3.20;1.10;;;8.10;99.90;;;;;;4986441;28;20030;-64
2023/12/13 06:27:28;;;;;;;2.30;1.20;;;8.10;99.90;;;;;;4987383;28;20564;-63
2023/12/13 06:29:53;;;;;;;1.85;1.48;;;8.00;99.90;;;;;;4987732;28;20034;-61
2023/12/13 06:32:19;;;;;;;4.80;1.20;;;8.00;99.90;;;;;;4987231;28;20725;-63
2023/12/13 06:34:45;;;;;;;4.15;1.33;;;8.00;99.90;;;;;;4986580;28;20479;-63
2023/12/13 06:37:11;;;;;;;4.07;1.20;;;8.00;99.90;;;;;;4987130;28;20049;-62
2023/12/13 06:39:37;;;;;;;2.60;1.20;;;7.90;99.90;;;;;;4986615;28;20037;-62
2023/12/13 06:42:08;;;;;;;4.40;1.08;;;7.90;99.90;;;;;;4987258;28;20513;-62
2023/12/13 06:44:37;;;;;;;2.92;0.90;;;7.90;99.90;;;;;;4987136;28;20046;-63
2023/12/13 06:47:04;;;;;;;7.35;1.95;;;7.90;99.90;;;;;;4986985;28;20034;-63
2023/12/13 06:49:31;;;;;;;3.35;1.10;;;7.90;99.90;;;;;;4986700;28;20089;-61
2023/12/13 06:51:59;;;;;;;6.15;1.17;;;7.90;99.90;;;;;;4987542;28;20065;-63
2023/12/13 06:54:25;;;;;;;2.92;0.90;;;7.90;99.90;;;;;;4987051;28;20053;-62
2023/12/13 06:56:50;;;;;;;8.55;1.25;;;7.90;99.90;;;;;;4986167;28;20112;-63
2023/12/13 06:59:16;;;;;;;7.00;2.00;;;7.90;99.90;;;;;;4986577;28;20042;-62
2023/12/13 07:01:42;;;;;;;2.60;1.08;;;7.90;99.90;;;;;;4986635;28;20033;-63
2023/12/13 07:04:08;;;;;;;1.90;1.05;;;7.80;99.90;;;;;;4986400;28;20763;-63
2023/12/13 07:06:33;;;;;;;1.88;1.55;;;7.80;99.90;;;;;;4986528;28;20092;-62
2023/12/13 07:08:59;;;;;;;5.05;1.83;;;7.80;99.90;;;;;;4986938;28;20062;-63
2023/12/13 07:11:25;;;;;;;2.50;1.38;;;7.70;99.90;;;;;;4985889;28;20033;-62
2023/12/13 07:13:51;;;;;;;3.80;1.25;;;7.60;99.90;;;;;;4985756;28;20042;-62
2023/12/13 07:16:17;;;;;;;2.88;1.40;;;7.60;99.90;;;;;;4985242;28;20030;-63
2023/12/13 07:18:43;;;;;;;2.75;1.45;;;7.60;99.90;;;;;;4985145;28;20109;-62
2023/12/13 07:21:08;;;;;;;5.47;1.58;;;7.60;99.90;;;;;;4985744;28;20038;-64
2023/12/13 07:23:35;;;;;;;6.50;1.90;;;7.60;99.90;;;;;;4985797;28;20046;-63
2023/12/13 07:26:02;;;;;;;5.60;1.90;;;7.60;99.90;;;;;;4985408;28;20544;-63
2023/12/13 07:28:28;;;;;;;8.10;1.73;;;7.60;99.90;;;;;;4986468;28;20034;-62
2023/12/13 07:30:55;;;;;;;4.85;1.73;;;7.60;99.90;;;;;;4986281;28;20426;-61
2023/12/13 07:33:20;;;;;;;3.25;2.38;;;7.60;99.90;;;;;;4989610;28;20030;-63
2023/12/13 07:35:47;;;;;;;3.30;1.58;;;7.70;99.90;;;;;;4986142;28;20056;-63
2023/12/13 07:38:14;;;;;;;4.35;1.50;;;7.70;99.90;;;;;;4987581;28;20118;-63
2023/12/13 07:40:40;;;;;;;6.45;1.92;;;7.80;99.90;;;;;;4984050;28;20026;-63
2023/12/13 07:43:06;;;;;;;4.32;2.38;;;7.80;99.90;;;;;;4986195;28;20041;-64
2023/12/13 07:45:32;;;;;;;7.97;1.60;;;7.80;99.90;;;;;;4986335;28;20390;-62
2023/12/13 07:47:57;;;;;;;4.40;1.60;;;7.80;99.90;;;;;;4986520;28;20034;-63
2023/12/13 07:50:23;;;;;;;3.75;1.30;;;7.90;99.90;;;;;;4986596;28;20406;-63
2023/12/13 07:52:48;;;;;;;2.80;1.17;;;7.90;99.90;;;;;;4986027;28;20041;-63
2023/12/13 07:55:18;;;;;;;3.00;1.30;;;7.90;99.90;;;;;;4989691;28;20080;-63
2023/12/13 07:57:44;;;;;;;1.77;1.35;;;7.90;99.90;;;;;;4989434;28;20689;-63
2023/12/13 08:00:11;;;;;;;3.72;1.17;;;8.00;99.90;;;;;;4989609;28;20037;-63
2023/12/13 08:02:36;;;;;;;5.50;1.35;;;7.90;99.90;;;;;;4989879;28;20498;-61
2023/12/13 08:05:03;;;;;;;2.45;1.55;;;7.90;99.90;;;;;;4989621;28;20050;-61
2023/12/13 08:07:29;;;;;;;3.45;1.30;;;8.00;99.90;;;;;;4989651;28;20108;-64
2023/12/13 08:09:59;;;;;;;2.92;1.60;;;7.90;99.90;;;;;;4989872;28;20101;-63
2023/12/13 08:12:27;;;;;;;4.65;1.50;;;8.00;99.90;;;;;;4990448;28;20014;-63
2023/12/13 08:14:53;;;;;;;2.50;1.30;;;8.00;99.90;;;;;;4988158;28;20550;-63
2023/12/13 08:17:18;;;;;;;4.70;1.92;;;8.00;99.90;;;;;;4990228;28;20113;-63
2023/12/13 08:19:44;;;;;;;3.22;1.42;;;8.00;99.90;;;;;;4988415;28;20584;-60
2023/12/13 08:22:10;;;;;;;6.05;1.67;;;8.00;99.90;;;;;;4988912;28;20021;-63
2023/12/13 08:24:35;;;;;;;1.75;1.15;;;8.00;99.90;;;;;;4989661;28;20026;-63
2023/12/13 08:27:01;;;;;;;3.28;1.35;;;8.00;99.90;;;;;;4988329;28;20026;-63
2023/12/13 08:29:27;;;;;;;2.75;1.20;;;8.00;99.90;;;;;;4988839;28;20541;-63
2023/12/13 08:31:52;;;;;;;3.13;1.50;;;8.00;99.90;;;;;;4989159;28;20691;-63
2023/12/13 08:34:18;;;;;;;1.95;1.25;;;8.00;99.90;;;;;;4988109;28;20042;-63
2023/12/13 08:36:44;;;;;;;2.58;1.75;;;8.00;99.90;;;;;;4987694;28;20018;-62
2023/12/13 08:39:11;;;;;;;4.70;1.27;;;8.00;99.90;;;;;;4988399;28;20486;-62
2023/12/13 08:41:36;;;;;;;3.55;2.00;;;8.00;99.90;;;;;;4985778;28;20041;-63
2023/12/13 08:44:03;;;;;;;2.13;1.50;;;8.00;99.90;;;;;;4987740;28;20042;-62
2023/12/13 08:46:28;;;;;;;1.65;1.30;;;8.10;99.90;;;;;;4987631;28;20042;-63
2023/12/13 08:48:54;;;;;;;4.97;1.63;;;8.10;99.90;;;;;;4989062;28;20495;-61
2023/12/13 08:51:19;;;;;;;2.67;1.30;;;8.10;99.90;;;;;;4988480;28;20514;-63
2023/12/13 08:53:48;;;;;;;2.42;1.20;;;8.20;99.90;;;;;;4988302;28;20035;-63
2023/12/13 08:56:15;;;;;;;2.30;1.23;;;8.30;99.90;;;;;;4987194;28;20054;-63
2023/12/13 08:58:41;;;;;;;2.25;1.25;;;8.30;99.90;;;;;;4988593;28;20423;-63
2023/12/13 09:01:07;;;;;;;1.95;1.10;;;8.30;99.90;;;;;;4987893;28;20046;-62
2023/12/13 09:03:32;;;;;;;1.85;1.20;;;8.40;99.90;;;;;;4988850;28;20029;-63
2023/12/13 09:05:58;;;;;;;2.67;1.27;;;8.40;99.90;;;;;;4987065;28;20061;-63
2023/12/13 09:08:24;;;;;;;3.47;1.33;;;8.50;99.90;;;;;;4990882;28;20027;-63
2023/12/13 09:10:49;;;;;;;3.05;1.35;;;8.60;99.90;;;;;;4989804;28;20034;-62
2023/12/13 09:13:15;;;;;;;2.08;1.40;;;8.70;99.90;;;;;;4987084;28;20042;-63
2023/12/13 09:15:42;;;;;;;4.00;1.77;;;8.80;99.90;;;;;;4988946;28;20038;-63
2023/12/13 09:18:08;;;;;;;3.58;1.55;;;8.90;99.90;;;;;;4987714;28;20030;-64
2023/12/13 09:20:34;;;;;;;2.13;1.50;;;9.00;99.90;;;;;;4988142;28;20046;-64
2023/12/13 09:23:00;;;;;;;1.75;1.40;;;9.00;99.90;;;;;;4987129;28;20101;-63
2023/12/13 09:25:25;;;;;;;8.48;2.30;;;9.00;99.90;;;;;;4987243;28;20089;-63
2023/12/13 09:27:51;;;;;;;3.05;1.88;;;9.00;99.90;;;;;;4988669;28;20034;-63
2023/12/13 09:30:17;;;;;;;1.85;1.65;;;9.10;99.90;;;;;;4988371;28;20030;-64
2023/12/13 09:32:42;;;;;;;3.13;1.85;;;9.10;99.90;;;;;;4988725;28;20029;-64
2023/12/13 09:35:08;;;;;;;2.83;1.58;;;9.20;99.90;;;;;;4988208;28;20042;-64
2023/12/13 09:37:35;;;;;;;2.28;1.38;;;9.30;99.90;;;;;;4988466;28;20548;-64
2023/12/13 09:40:00;;;;;;;2.10;1.58;;;9.20;99.90;;;;;;4988615;28;20029;-64
2023/12/13 09:42:26;;;;;;;2.75;2.03;;;9.20;99.90;;;;;;4988904;28;20026;-64
2023/12/13 09:44:52;;;;;;;2.10;1.50;;;9.20;99.90;;;;;;4987827;28;20033;-63
2023/12/13 09:47:20;;;;;;;3.17;1.90;;;9.10;99.90;;;;;;4987968;28;20062;-64
2023/12/13 09:49:48;;;;;;;8.18;2.05;;;9.20;99.90;;;;;;4986842;28;20034;-65
2023/12/13 09:52:18;;;;;;;3.17;2.10;;;9.20;99.90;;;;;;4988135;28;20031;-64
2023/12/13 09:54:45;;;;;;;3.22;2.22;;;9.30;99.90;;;;;;4988049;28;20721;-63
2023/12/13 09:57:11;;;;;;;5.05;2.33;;;9.30;99.90;;;;;;4988723;28;20035;-64
2023/12/13 09:59:38;;;;;;;4.03;2.30;;;9.30;99.90;;;;;;4986632;28;20026;-63
2023/12/13 10:02:13;;;;;;;4.68;2.92;;;9.30;99.90;;;;;;4986324;28;20035;-63
2023/12/13 10:04:39;;;;;;;3.85;2.60;;;9.20;99.90;;;;;;4987656;28;20065;-63
2023/12/13 10:07:11;;;;;;;8.05;3.35;;;9.10;99.90;;;;;;4987949;28;20022;-64
2023/12/13 10:09:37;;;;;;;4.57;3.20;;;9.10;99.90;;;;;;4988043;28;20097;-64
2023/12/13 10:12:04;;;;;;;3.28;2.97;;;9.00;99.90;;;;;;4988265;28;20034;-64
2023/12/13 10:14:34;;;;;;;4.70;3.55;;;9.00;99.90;;;;;;4987564;28;20045;-64
2023/12/13 10:17:00;;;;;;;5.40;3.55;;;8.90;99.90;;;;;;4987890;28;20046;-63
2023/12/13 10:19:26;;;;;;;4.65;3.20;;;8.80;99.90;;;;;;4988548;28;20038;-64
2023/12/13 10:21:52;;;;;;;7.57;3.85;;;8.80;99.90;;;;;;4988139;28;20084;-64
2023/12/13 10:24:20;;;;;;;4.43;2.75;;;8.70;99.90;;;;;;4985618;28;20045;-64
2023/12/13 10:26:46;;;;;;;4.43;3.08;;;8.70;99.90;;;;;;4987509;28;20490;-64
2023/12/13 10:29:12;;;;;;;7.28;3.53;;;8.70;99.90;;;;;;4987538;28;20101;-64
2023/12/13 10:31:38;;;;;;;7.15;3.20;;;8.80;99.90;;;;;;4986246;28;20426;-64
2023/12/13 10:34:03;;;;;;;4.22;2.85;;;8.80;99.90;;;;;;4986616;28;20994;-65
2023/12/13 10:36:32;;;;;;;3.10;2.55;;;8.80;99.90;;;;;;4987464;28;20030;-64
2023/12/13 10:38:59;;;;;;;3.47;2.65;;;8.80;99.90;;;;;;4986360;28;20022;-64
2023/12/13 10:41:26;;;;;;;8.63;3.40;;;8.80;99.90;;;;;;4986726;28;20027;-64
2023/12/13 10:43:57;;;;;;;5.05;2.70;;;8.80;99.90;;;;;;4987593;28;20434;-64
2023/12/13 10:46:26;;;;;;;4.93;2.67;;;8.80;99.90;;;;;;4986988;28;20031;-64
2023/12/13 10:48:52;;;;;;;7.05;2.72;;;8.80;99.90;;;;;;4986912;28;20089;-64
2023/12/13 10:51:18;;;;;;;6.38;3.03;;;8.80;99.90;;;;;;4987420;28;20034;-64
2023/12/13 10:53:45;;;;;;;5.07;3.10;;;8.80;99.90;;;;;;5002123;28;20026;-64
2023/12/13 10:56:13;;;;;;;5.25;3.60;;;8.80;99.90;;;;;;4986893;28;20030;-64
2023/12/13 10:58:39;;;;;;;6.90;3.92;;;8.80;99.90;;;;;;4985470;28;20038;-64
2023/12/13 11:01:07;;;;;;;4.85;4.38;;;8.90;99.90;;;;;;4986376;28;20022;-64
2023/12/13 11:04:06;;;;;;;9.73;4.05;;;8.90;99.90;;;;;;4986658;28;20623;-64
2023/12/13 11:06:32;;;;;;;5.78;4.13;;;8.90;99.90;;;;;;4973613;28;20034;-64
2023/12/13 11:09:09;;;;;;;4.68;4.28;;;9.00;99.90;;;;;;4986504;28;20022;-63
2023/12/13 11:11:35;;;;;;;3.20;2.83;;;9.00;99.90;;;;;;4986331;28;20077;-64
2023/12/13 11:14:01;;;;;;;4.63;3.47;;;9.00;99.90;;;;;;4986255;28;20479;-63
2023/12/13 11:16:27;;;;;;;5.00;3.22;;;9.00;99.90;;;;;;4986142;28;20113;-64
2023/12/13 11:19:02;;;;;;;10.10;3.35;;;9.00;99.90;;;;;;4987632;28;20102;-64
2023/12/13 11:21:31;;;;;;;6.63;3.75;;;9.10;99.90;;;;;;4984979;28;20172;-63
2023/12/13 11:24:26;;;;;;;4.43;3.03;;;9.10;99.90;;;;;;4983468;28;20064;-64
2023/12/13 11:26:58;;;;;;;3.58;2.65;;;9.20;99.90;;;;;;4985278;28;20022;-64
2023/12/13 11:29:28;;;;;;;5.80;3.17;;;9.20;99.90;;;;;;4984714;28;20050;-64
2023/12/13 11:31:57;;;;;;;4.38;3.03;;;9.30;99.90;;;;;;4986693;28;20038;-64
2023/12/13 11:34:32;;;;;;;3.92;2.92;;;9.20;99.90;;;;;;4985897;28;20030;-63
2023/12/13 11:37:07;;;;;;;3.67;2.30;;;9.20;99.90;;;;;;4986236;28;20545;-64
2023/12/13 11:39:36;;;;;;;3.40;2.40;;;9.20;99.90;;;;;;4985849;28;20374;-64
2023/12/13 11:42:04;;;;;;;4.47;2.30;;;9.30;99.90;;;;;;4984991;28;20031;-65
2023/12/13 11:44:31;;;;;;;4.13;2.83;;;9.30;99.90;;;;;;4985163;28;20030;-65
2023/12/13 11:47:00;;;;;;;3.58;2.40;;;9.40;99.90;;;;;;4986389;28;20117;-65
2023/12/13 11:49:26;;;;;;;5.63;2.55;;;9.50;99.90;;;;;;4985834;28;20042;-64
2023/12/13 11:51:55;;;;;;;3.25;2.17;;;9.50;99.90;;;;;;4987387;28;20023;-64
2023/12/13 11:54:21;;;;;;;3.38;1.73;;;9.60;99.90;;;;;;4984289;28;20027;-64
2023/12/13 11:56:47;;;;;;;3.88;1.83;;;9.70;99.90;;;;;;4985661;28;20041;-64
2023/12/13 11:59:13;;;;;;;4.20;2.22;;;9.70;99.90;;;;;;4985790;28;20045;-64
2023/12/13 12:01:40;;;;;;;4.65;3.08;;;9.70;99.90;;;;;;4985572;28;20033;-64
2023/12/13 12:04:06;;;;;;;4.32;2.13;;;9.70;99.90;;;;;;4986162;28;20109;-64
2023/12/13 12:06:32;;;;;;;4.05;2.45;;;9.60;99.90;;;;;;4984927;28;20023;-64
2023/12/13 12:09:02;;;;;;;3.90;2.35;;;9.50;99.90;;;;;;4985701;28;20026;-64
2023/12/13 12:11:28;;;;;;;3.28;2.25;;;9.50;99.90;;;;;;4985677;28;20394;-64
2023/12/13 12:13:57;;;;;;;4.10;2.33;;;9.50;99.90;;;;;;4986195;28;20022;-64
2023/12/13 12:16:22;;;;;;;4.30;2.28;;;9.50;99.90;;;;;;4984922;28;20399;-63
2023/12/13 12:18:48;;;;;;;7.85;2.40;;;9.60;99.90;;;;;;4985412;28;20043;-64
2023/12/13 12:21:14;;;;;;;4.80;1.92;;;9.70;99.90;;;;;;4984812;28;20502;-64
2023/12/13 12:23:42;;;;;;;3.40;2.08;;;9.60;99.90;;;;;;4985605;28;20066;-64
2023/12/13 12:26:09;;;;;;;4.53;2.67;;;9.50;99.90;;;;;;4984387;28;20022;-64
2023/12/13 12:28:36;;;;;;;4.38;1.80;;;9.50;99.90;;;;;;4985458;28;20382;-63
2023/12/13 12:31:02;;;;;;;5.43;2.05;;;9.40;99.90;;;;;;4986303;28;20042;-64
2023/12/13 12:33:28;;;;;;;11.27;3.78;;;9.30;99.90;;;;;;4986786;28;20018;-64
2023/12/13 12:35:54;;;;;;;4.50;2.40;;;9.20;99.90;;;;;;4985810;28;20153;-64
2023/12/13 12:38:20;;;;;;;4.65;1.70;;;9.10;99.90;;;;;;4984890;28;20052;-64
2023/12/13 12:40:48;;;;;;;3.17;1.70;;;9.10;99.90;;;;;;4988138;28;20487;-64
2023/12/13 12:43:18;;;;;;;3.53;1.92;;;9.10;99.90;;;;;;4989556;28;20030;-64
2023/12/13 12:45:44;;;;;;;5.70;2.53;;;9.00;99.90;;;;;;4989932;28;20105;-64
2023/12/13 12:48:09;;;;;;;5.43;2.20;;;9.00;99.90;;;;;;4987911;28;20451;-64